Jefferson, South Dakota
Current Conditions -  °F | °C
As of 3:52 PM on Tuesday 21 Oct 2014 (Local Time) from KSUX Reporting Station
Clear Clear  
Wind Chill: 76°   Ceiling: Unl
Heat Index: 76°   Visibility: 10mi
Dew Point: 43°   Wind: 10mph
Humidity: 31%   Direction: 160°SSE
Pressure: 30.01"   Gusts: NA
Location:  42.6°N, 96.56°W
Report Text: KSUX 212052Z 16009KT 10SM CLR 24/06 A3001 RMK AO2 SLP163 T02440061 56018
Loading
Personal Weather Stations






























Interactive Weather Map
Tropical Storm Tracking
New forecast layout! Learn more

10-Day Weather Forecast

Advertisements
Track Severe Weather on mobile